sensor_id;sensor_type;location;lat;lon;timestamp;P1;durP1;ratioP1;P2;durP2;ratioP2
20671;SDS011;10495;50.922;4.760;2023-07-13T00:02:22;2.93;;;1.73;;
20671;SDS011;10495;50.922;4.760;2023-07-13T00:04:48;5.90;;;1.90;;
20671;SDS011;10495;50.922;4.760;2023-07-13T00:07:14;6.57;;;2.07;;
20671;SDS011;10495;50.922;4.760;2023-07-13T00:09:40;2.77;;;1.60;;
20671;SDS011;10495;50.922;4.760;2023-07-13T00:12:21;6.00;;;1.90;;
20671;SDS011;10495;50.922;4.760;2023-07-13T00:14:48;2.90;;;1.50;;
20671;SDS011;10495;50.922;4.760;2023-07-13T00:17:15;7.77;;;2.03;;
20671;SDS011;10495;50.922;4.760;2023-07-13T00:19:40;5.60;;;2.07;;
20671;SDS011;10495;50.922;4.760;2023-07-13T00:22:06;3.60;;;1.70;;
20671;SDS011;10495;50.922;4.760;2023-07-13T00:24:32;5.13;;;1.60;;
20671;SDS011;10495;50.922;4.760;2023-07-13T00:26:57;3.90;;;1.50;;
20671;SDS011;10495;50.922;4.760;2023-07-13T00:29:23;4.30;;;1.57;;
20671;SDS011;10495;50.922;4.760;2023-07-13T00:31:50;5.50;;;2.27;;
20671;SDS011;10495;50.922;4.760;2023-07-13T00:34:16;3.87;;;1.70;;
20671;SDS011;10495;50.922;4.760;2023-07-13T00:36:41;5.27;;;2.20;;
20671;SDS011;10495;50.922;4.760;2023-07-13T00:39:07;3.53;;;1.70;;
20671;SDS011;10495;50.922;4.760;2023-07-13T00:41:33;6.93;;;1.90;;
20671;SDS011;10495;50.922;4.760;2023-07-13T00:43:59;3.30;;;1.53;;
20671;SDS011;10495;50.922;4.760;2023-07-13T00:46:29;6.40;;;1.70;;
20671;SDS011;10495;50.922;4.760;2023-07-13T00:48:58;5.33;;;1.93;;
20671;SDS011;10495;50.922;4.760;2023-07-13T00:54:15;7.73;;;1.83;;
20671;SDS011;10495;50.922;4.760;2023-07-13T00:56:47;3.73;;;1.47;;
20671;SDS011;10495;50.922;4.760;2023-07-13T00:59:14;6.07;;;1.57;;
20671;SDS011;10495;50.922;4.760;2023-07-13T01:01:42;4.27;;;1.70;;
20671;SDS011;10495;50.922;4.760;2023-07-13T01:04:07;4.97;;;1.97;;
20671;SDS011;10495;50.922;4.760;2023-07-13T01:06:36;1.33;;;1.23;;
20671;SDS011;10495;50.922;4.760;2023-07-13T01:09:03;8.20;;;1.87;;
20671;SDS011;10495;50.922;4.760;2023-07-13T01:11:30;9.27;;;2.20;;
20671;SDS011;10495;50.922;4.760;2023-07-13T01:13:56;6.13;;;1.90;;
20671;SDS011;10495;50.922;4.760;2023-07-13T01:16:25;3.53;;;1.60;;
20671;SDS011;10495;50.922;4.760;2023-07-13T01:19:01;8.10;;;1.87;;
20671;SDS011;10495;50.922;4.760;2023-07-13T01:21:33;4.37;;;2.20;;
20671;SDS011;10495;50.922;4.760;2023-07-13T01:23:59;4.40;;;2.23;;
20671;SDS011;10495;50.922;4.760;2023-07-13T01:26:27;2.87;;;1.73;;
20671;SDS011;10495;50.922;4.760;2023-07-13T01:28:52;4.97;;;1.83;;
20671;SDS011;10495;50.922;4.760;2023-07-13T01:31:18;6.07;;;2.13;;
20671;SDS011;10495;50.922;4.760;2023-07-13T01:33:43;4.17;;;1.90;;
20671;SDS011;10495;50.922;4.760;2023-07-13T01:36:10;6.10;;;2.17;;
20671;SDS011;10495;50.922;4.760;2023-07-13T01:38:36;4.73;;;1.83;;
20671;SDS011;10495;50.922;4.760;2023-07-13T01:41:02;4.77;;;1.90;;
20671;SDS011;10495;50.922;4.760;2023-07-13T01:43:28;5.83;;;2.13;;
20671;SDS011;10495;50.922;4.760;2023-07-13T01:45:54;6.20;;;2.20;;
20671;SDS011;10495;50.922;4.760;2023-07-13T01:48:20;7.83;;;2.10;;
20671;SDS011;10495;50.922;4.760;2023-07-13T01:50:47;4.33;;;1.97;;
20671;SDS011;10495;50.922;4.760;2023-07-13T01:53:13;3.50;;;2.10;;
20671;SDS011;10495;50.922;4.760;2023-07-13T01:55:38;3.93;;;2.13;;
20671;SDS011;10495;50.922;4.760;2023-07-13T01:58:04;4.90;;;2.07;;
20671;SDS011;10495;50.922;4.760;2023-07-13T02:00:31;7.23;;;2.37;;
20671;SDS011;10495;50.922;4.760;2023-07-13T02:02:56;4.63;;;2.00;;
20671;SDS011;10495;50.922;4.760;2023-07-13T02:05:22;6.93;;;2.03;;
20671;SDS011;10495;50.922;4.760;2023-07-13T02:07:48;4.20;;;1.73;;
20671;SDS011;10495;50.922;4.760;2023-07-13T02:10:14;4.10;;;2.13;;
20671;SDS011;10495;50.922;4.760;2023-07-13T02:12:40;5.97;;;2.30;;
20671;SDS011;10495;50.922;4.760;2023-07-13T02:15:06;5.23;;;1.83;;
20671;SDS011;10495;50.922;4.760;2023-07-13T02:17:33;5.20;;;1.93;;
20671;SDS011;10495;50.922;4.760;2023-07-13T02:20:00;6.87;;;2.20;;
20671;SDS011;10495;50.922;4.760;2023-07-13T02:22:27;3.93;;;1.60;;
20671;SDS011;10495;50.922;4.760;2023-07-13T02:24:52;7.27;;;2.30;;
20671;SDS011;10495;50.922;4.760;2023-07-13T02:27:18;5.03;;;2.07;;
20671;SDS011;10495;50.922;4.760;2023-07-13T02:29:44;4.80;;;1.90;;
20671;SDS011;10495;50.922;4.760;2023-07-13T02:32:10;9.20;;;2.30;;
20671;SDS011;10495;50.922;4.760;2023-07-13T02:34:35;4.87;;;2.10;;
20671;SDS011;10495;50.922;4.760;2023-07-13T02:37:01;5.30;;;2.37;;
20671;SDS011;10495;50.922;4.760;2023-07-13T02:39:26;3.47;;;2.20;;
20671;SDS011;10495;50.922;4.760;2023-07-13T02:41:52;4.50;;;2.50;;
20671;SDS011;10495;50.922;4.760;2023-07-13T02:44:18;6.43;;;2.30;;
20671;SDS011;10495;50.922;4.760;2023-07-13T02:46:44;3.63;;;2.07;;
20671;SDS011;10495;50.922;4.760;2023-07-13T02:49:09;7.73;;;2.10;;
20671;SDS011;10495;50.922;4.760;2023-07-13T02:51:35;5.50;;;2.10;;
20671;SDS011;10495;50.922;4.760;2023-07-13T02:54:01;5.43;;;2.03;;
20671;SDS011;10495;50.922;4.760;2023-07-13T02:56:28;5.93;;;2.20;;
20671;SDS011;10495;50.922;4.760;2023-07-13T02:58:56;7.33;;;2.47;;
20671;SDS011;10495;50.922;4.760;2023-07-13T03:01:22;4.97;;;2.03;;
20671;SDS011;10495;50.922;4.760;2023-07-13T03:03:48;8.80;;;3.40;;
20671;SDS011;10495;50.922;4.760;2023-07-13T03:06:15;12.83;;;2.70;;
20671;SDS011;10495;50.922;4.760;2023-07-13T03:08:42;4.80;;;2.03;;
20671;SDS011;10495;50.922;4.760;2023-07-13T03:11:12;5.77;;;1.83;;
20671;SDS011;10495;50.922;4.760;2023-07-13T03:13:40;6.33;;;2.27;;
20671;SDS011;10495;50.922;4.760;2023-07-13T03:16:07;4.00;;;1.90;;
20671;SDS011;10495;50.922;4.760;2023-07-13T03:18:35;6.97;;;1.93;;
20671;SDS011;10495;50.922;4.760;2023-07-13T03:21:01;5.77;;;2.40;;
20671;SDS011;10495;50.922;4.760;2023-07-13T03:23:26;5.47;;;2.40;;
20671;SDS011;10495;50.922;4.760;2023-07-13T03:26:05;8.33;;;2.50;;
20671;SDS011;10495;50.922;4.760;2023-07-13T03:28:36;4.97;;;2.20;;
20671;SDS011;10495;50.922;4.760;2023-07-13T03:31:06;6.57;;;2.60;;
20671;SDS011;10495;50.922;4.760;2023-07-13T03:33:34;5.83;;;3.13;;
20671;SDS011;10495;50.922;4.760;2023-07-13T03:36:00;4.53;;;2.40;;
20671;SDS011;10495;50.922;4.760;2023-07-13T03:38:26;3.63;;;2.13;;
20671;SDS011;10495;50.922;4.760;2023-07-13T03:40:52;9.00;;;3.90;;
20671;SDS011;10495;50.922;4.760;2023-07-13T03:43:18;4.93;;;2.13;;
20671;SDS011;10495;50.922;4.760;2023-07-13T03:45:45;6.27;;;2.27;;
20671;SDS011;10495;50.922;4.760;2023-07-13T03:48:11;7.67;;;2.60;;
20671;SDS011;10495;50.922;4.760;2023-07-13T03:50:37;7.77;;;2.73;;
20671;SDS011;10495;50.922;4.760;2023-07-13T03:53:03;3.93;;;2.03;;
20671;SDS011;10495;50.922;4.760;2023-07-13T03:55:29;11.97;;;3.80;;
20671;SDS011;10495;50.922;4.760;2023-07-13T03:58:23;6.97;;;2.60;;
20671;SDS011;10495;50.922;4.760;2023-07-13T04:00:49;7.40;;;2.47;;
20671;SDS011;10495;50.922;4.760;2023-07-13T04:03:15;6.00;;;2.50;;
20671;SDS011;10495;50.922;4.760;2023-07-13T04:05:41;7.00;;;2.40;;
20671;SDS011;10495;50.922;4.760;2023-07-13T04:08:07;5.60;;;2.73;;
20671;SDS011;10495;50.922;4.760;2023-07-13T04:10:32;5.20;;;2.53;;
20671;SDS011;10495;50.922;4.760;2023-07-13T04:12:58;6.23;;;2.83;;
20671;SDS011;10495;50.922;4.760;2023-07-13T04:15:24;5.50;;;2.37;;
20671;SDS011;10495;50.922;4.760;2023-07-13T04:17:49;6.03;;;2.10;;
20671;SDS011;10495;50.922;4.760;2023-07-13T04:20:15;10.37;;;2.60;;
20671;SDS011;10495;50.922;4.760;2023-07-13T04:22:40;5.77;;;2.37;;
20671;SDS011;10495;50.922;4.760;2023-07-13T04:25:06;8.97;;;2.93;;
20671;SDS011;10495;50.922;4.760;2023-07-13T04:27:32;3.93;;;2.57;;
20671;SDS011;10495;50.922;4.760;2023-07-13T04:29:57;6.37;;;2.50;;
20671;SDS011;10495;50.922;4.760;2023-07-13T04:32:23;5.83;;;2.30;;
20671;SDS011;10495;50.922;4.760;2023-07-13T04:34:49;5.77;;;2.80;;
20671;SDS011;10495;50.922;4.760;2023-07-13T04:37:19;7.43;;;2.47;;
20671;SDS011;10495;50.922;4.760;2023-07-13T04:39:45;7.87;;;2.87;;
20671;SDS011;10495;50.922;4.760;2023-07-13T04:42:11;6.20;;;2.27;;
20671;SDS011;10495;50.922;4.760;2023-07-13T04:44:36;6.57;;;2.30;;
20671;SDS011;10495;50.922;4.760;2023-07-13T04:47:02;9.70;;;2.43;;
20671;SDS011;10495;50.922;4.760;2023-07-13T04:49:28;11.33;;;3.13;;
20671;SDS011;10495;50.922;4.760;2023-07-13T04:51:54;6.20;;;2.60;;
20671;SDS011;10495;50.922;4.760;2023-07-13T04:54:20;9.67;;;3.13;;
20671;SDS011;10495;50.922;4.760;2023-07-13T04:56:46;6.93;;;2.43;;
20671;SDS011;10495;50.922;4.760;2023-07-13T04:59:11;5.33;;;2.60;;
20671;SDS011;10495;50.922;4.760;2023-07-13T05:01:37;8.07;;;3.10;;
20671;SDS011;10495;50.922;4.760;2023-07-13T05:04:02;9.10;;;2.43;;
20671;SDS011;10495;50.922;4.760;2023-07-13T05:06:28;6.33;;;2.57;;
20671;SDS011;10495;50.922;4.760;2023-07-13T05:08:55;8.87;;;2.87;;
20671;SDS011;10495;50.922;4.760;2023-07-13T05:11:21;8.67;;;2.93;;
20671;SDS011;10495;50.922;4.760;2023-07-13T05:13:46;6.87;;;2.70;;
20671;SDS011;10495;50.922;4.760;2023-07-13T05:16:12;10.33;;;3.03;;
20671;SDS011;10495;50.922;4.760;2023-07-13T05:18:38;6.23;;;2.00;;
20671;SDS011;10495;50.922;4.760;2023-07-13T05:21:04;10.30;;;3.00;;
20671;SDS011;10495;50.922;4.760;2023-07-13T05:23:33;7.23;;;2.97;;
20671;SDS011;10495;50.922;4.760;2023-07-13T05:26:00;7.37;;;2.90;;
20671;SDS011;10495;50.922;4.760;2023-07-13T05:28:27;7.43;;;2.53;;
20671;SDS011;10495;50.922;4.760;2023-07-13T05:30:53;6.53;;;2.73;;
20671;SDS011;10495;50.922;4.760;2023-07-13T05:33:19;7.70;;;2.87;;
20671;SDS011;10495;50.922;4.760;2023-07-13T05:35:45;9.43;;;2.97;;
20671;SDS011;10495;50.922;4.760;2023-07-13T05:38:11;6.63;;;2.30;;
20671;SDS011;10495;50.922;4.760;2023-07-13T05:40:37;12.20;;;3.07;;
20671;SDS011;10495;50.922;4.760;2023-07-13T05:43:02;8.33;;;3.33;;
20671;SDS011;10495;50.922;4.760;2023-07-13T05:45:28;8.13;;;2.67;;
20671;SDS011;10495;50.922;4.760;2023-07-13T05:47:54;10.60;;;3.47;;
20671;SDS011;10495;50.922;4.760;2023-07-13T05:50:20;10.87;;;2.70;;
20671;SDS011;10495;50.922;4.760;2023-07-13T05:52:46;7.00;;;2.67;;
20671;SDS011;10495;50.922;4.760;2023-07-13T05:55:12;7.33;;;2.67;;
20671;SDS011;10495;50.922;4.760;2023-07-13T05:57:38;6.60;;;3.00;;
20671;SDS011;10495;50.922;4.760;2023-07-13T06:00:03;13.90;;;3.67;;
20671;SDS011;10495;50.922;4.760;2023-07-13T06:02:29;14.07;;;3.63;;
20671;SDS011;10495;50.922;4.760;2023-07-13T06:04:55;8.03;;;2.70;;
20671;SDS011;10495;50.922;4.760;2023-07-13T06:07:21;14.13;;;3.57;;
20671;SDS011;10495;50.922;4.760;2023-07-13T06:09:46;8.30;;;2.63;;
20671;SDS011;10495;50.922;4.760;2023-07-13T06:12:12;8.13;;;2.97;;
20671;SDS011;10495;50.922;4.760;2023-07-13T06:14:37;10.23;;;3.37;;
20671;SDS011;10495;50.922;4.760;2023-07-13T06:17:03;6.00;;;2.57;;
20671;SDS011;10495;50.922;4.760;2023-07-13T06:19:29;10.43;;;2.73;;
20671;SDS011;10495;50.922;4.760;2023-07-13T06:21:54;8.23;;;3.00;;
20671;SDS011;10495;50.922;4.760;2023-07-13T06:24:20;9.23;;;3.13;;
20671;SDS011;10495;50.922;4.760;2023-07-13T06:26:46;6.53;;;2.73;;
20671;SDS011;10495;50.922;4.760;2023-07-13T06:29:12;9.43;;;2.87;;
20671;SDS011;10495;50.922;4.760;2023-07-13T06:31:37;5.40;;;2.45;;
20671;SDS011;10495;50.922;4.760;2023-07-13T06:34:03;7.43;;;2.80;;
20671;SDS011;10495;50.922;4.760;2023-07-13T06:36:28;8.37;;;3.50;;
20671;SDS011;10495;50.922;4.760;2023-07-13T06:38:54;9.13;;;3.10;;
20671;SDS011;10495;50.922;4.760;2023-07-13T06:41:20;10.07;;;3.27;;
20671;SDS011;10495;50.922;4.760;2023-07-13T06:43:47;12.50;;;3.77;;
20671;SDS011;10495;50.922;4.760;2023-07-13T06:46:12;8.10;;;3.40;;
20671;SDS011;10495;50.922;4.760;2023-07-13T06:48:38;9.47;;;2.73;;
20671;SDS011;10495;50.922;4.760;2023-07-13T06:51:03;13.35;;;3.85;;
20671;SDS011;10495;50.922;4.760;2023-07-13T06:53:29;9.20;;;3.20;;
20671;SDS011;10495;50.922;4.760;2023-07-13T06:55:55;16.87;;;4.57;;
20671;SDS011;10495;50.922;4.760;2023-07-13T06:58:20;9.07;;;3.70;;
20671;SDS011;10495;50.922;4.760;2023-07-13T07:00:46;12.00;;;3.33;;
20671;SDS011;10495;50.922;4.760;2023-07-13T07:03:16;11.43;;;3.63;;
20671;SDS011;10495;50.922;4.760;2023-07-13T07:05:42;11.10;;;3.20;;
20671;SDS011;10495;50.922;4.760;2023-07-13T07:08:07;12.50;;;5.03;;
20671;SDS011;10495;50.922;4.760;2023-07-13T07:10:34;10.15;;;3.35;;
20671;SDS011;10495;50.922;4.760;2023-07-13T07:13:00;8.57;;;3.57;;
20671;SDS011;10495;50.922;4.760;2023-07-13T07:15:26;8.80;;;3.10;;
20671;SDS011;10495;50.922;4.760;2023-07-13T07:17:52;10.63;;;3.43;;
20671;SDS011;10495;50.922;4.760;2023-07-13T07:20:18;9.70;;;3.33;;
20671;SDS011;10495;50.922;4.760;2023-07-13T07:22:43;7.82;;;3.33;;
20671;SDS011;10495;50.922;4.760;2023-07-13T07:25:09;13.00;;;3.40;;
20671;SDS011;10495;50.922;4.760;2023-07-13T07:27:34;11.13;;;3.20;;
20671;SDS011;10495;50.922;4.760;2023-07-13T07:30:00;11.02;;;3.00;;
20671;SDS011;10495;50.922;4.760;2023-07-13T07:32:26;9.40;;;3.28;;
20671;SDS011;10495;50.922;4.760;2023-07-13T07:34:53;7.97;;;3.75;;
20671;SDS011;10495;50.922;4.760;2023-07-13T07:37:19;9.85;;;3.25;;
20671;SDS011;10495;50.922;4.760;2023-07-13T07:39:44;8.55;;;3.53;;
20671;SDS011;10495;50.922;4.760;2023-07-13T07:42:10;11.80;;;3.75;;
20671;SDS011;10495;50.922;4.760;2023-07-13T07:44:37;12.65;;;3.10;;
20671;SDS011;10495;50.922;4.760;2023-07-13T07:47:03;8.63;;;3.25;;
20671;SDS011;10495;50.922;4.760;2023-07-13T07:49:29;4.97;;;3.10;;
20671;SDS011;10495;50.922;4.760;2023-07-13T07:51:54;9.68;;;3.88;;
20671;SDS011;10495;50.922;4.760;2023-07-13T07:54:20;9.50;;;3.47;;
20671;SDS011;10495;50.922;4.760;2023-07-13T07:56:45;5.35;;;2.85;;
20671;SDS011;10495;50.922;4.760;2023-07-13T07:59:11;10.68;;;3.30;;
20671;SDS011;10495;50.922;4.760;2023-07-13T08:01:37;9.93;;;3.88;;
20671;SDS011;10495;50.922;4.760;2023-07-13T08:04:02;12.48;;;2.90;;
20671;SDS011;10495;50.922;4.760;2023-07-13T08:06:28;9.02;;;3.50;;
20671;SDS011;10495;50.922;4.760;2023-07-13T08:08:54;9.48;;;3.33;;
20671;SDS011;10495;50.922;4.760;2023-07-13T08:11:20;6.78;;;2.65;;
20671;SDS011;10495;50.922;4.760;2023-07-13T08:13:47;9.95;;;3.35;;
20671;SDS011;10495;50.922;4.760;2023-07-13T08:16:12;6.03;;;2.08;;
20671;SDS011;10495;50.922;4.760;2023-07-13T08:18:38;8.80;;;2.90;;
20671;SDS011;10495;50.922;4.760;2023-07-13T08:21:05;7.50;;;2.83;;
20671;SDS011;10495;50.922;4.760;2023-07-13T08:23:31;5.22;;;3.00;;
20671;SDS011;10495;50.922;4.760;2023-07-13T08:25:57;9.52;;;3.60;;
20671;SDS011;10495;50.922;4.760;2023-07-13T08:28:23;5.32;;;2.60;;
20671;SDS011;10495;50.922;4.760;2023-07-13T08:30:49;6.78;;;2.50;;
20671;SDS011;10495;50.922;4.760;2023-07-13T08:33:16;7.70;;;2.42;;
20671;SDS011;10495;50.922;4.760;2023-07-13T08:35:45;9.13;;;2.40;;
20671;SDS011;10495;50.922;4.760;2023-07-13T08:38:14;7.43;;;2.90;;
20671;SDS011;10495;50.922;4.760;2023-07-13T08:40:41;8.57;;;3.10;;
20671;SDS011;10495;50.922;4.760;2023-07-13T08:43:09;7.40;;;3.22;;
20671;SDS011;10495;50.922;4.760;2023-07-13T08:45:43;7.30;;;2.88;;
20671;SDS011;10495;50.922;4.760;2023-07-13T08:48:33;5.18;;;2.50;;
20671;SDS011;10495;50.922;4.760;2023-07-13T08:51:20;9.65;;;2.83;;
20671;SDS011;10495;50.922;4.760;2023-07-13T08:54:14;9.60;;;2.83;;
20671;SDS011;10495;50.922;4.760;2023-07-13T08:56:43;6.57;;;2.95;;
20671;SDS011;10495;50.922;4.760;2023-07-13T08:59:12;6.25;;;2.67;;
20671;SDS011;10495;50.922;4.760;2023-07-13T09:04:14;7.95;;;2.80;;
20671;SDS011;10495;50.922;4.760;2023-07-13T09:06:59;6.25;;;2.35;;
20671;SDS011;10495;50.922;4.760;2023-07-13T09:12:21;8.63;;;2.30;;
20671;SDS011;10495;50.922;4.760;2023-07-13T09:14:58;15.30;;;2.72;;
20671;SDS011;10495;50.922;4.760;2023-07-13T09:17:34;5.40;;;2.75;;
20671;SDS011;10495;50.922;4.760;2023-07-13T09:20:23;6.25;;;2.15;;
20671;SDS011;10495;50.922;4.760;2023-07-13T09:22:51;5.03;;;1.90;;
20671;SDS011;10495;50.922;4.760;2023-07-13T09:27:56;7.53;;;2.67;;
20671;SDS011;10495;50.922;4.760;2023-07-13T09:30:34;3.60;;;2.17;;
20671;SDS011;10495;50.922;4.760;2023-07-13T09:33:08;3.97;;;2.13;;
20671;SDS011;10495;50.922;4.760;2023-07-13T09:35:34;8.73;;;2.10;;
20671;SDS011;10495;50.922;4.760;2023-07-13T09:38:11;5.65;;;2.20;;
20671;SDS011;10495;50.922;4.760;2023-07-13T09:40:48;5.65;;;2.38;;
20671;SDS011;10495;50.922;4.760;2023-07-13T09:43:17;6.10;;;2.05;;
20671;SDS011;10495;50.922;4.760;2023-07-13T09:45:46;4.93;;;1.75;;
20671;SDS011;10495;50.922;4.760;2023-07-13T09:48:13;5.32;;;1.58;;
20671;SDS011;10495;50.922;4.760;2023-07-13T09:50:40;4.97;;;1.80;;
20671;SDS011;10495;50.922;4.760;2023-07-13T09:53:17;4.10;;;1.77;;
20671;SDS011;10495;50.922;4.760;2023-07-13T09:55:47;8.18;;;2.17;;
20671;SDS011;10495;50.922;4.760;2023-07-13T10:03:21;4.55;;;1.85;;
20671;SDS011;10495;50.922;4.760;2023-07-13T10:05:50;5.38;;;2.20;;
20671;SDS011;10495;50.922;4.760;2023-07-13T10:08:18;4.85;;;2.17;;
20671;SDS011;10495;50.922;4.760;2023-07-13T10:10:59;8.50;;;1.83;;
20671;SDS011;10495;50.922;4.760;2023-07-13T10:13:31;4.15;;;1.90;;
20671;SDS011;10495;50.922;4.760;2023-07-13T10:16:02;5.82;;;1.95;;
20671;SDS011;10495;50.922;4.760;2023-07-13T10:18:31;3.83;;;1.60;;
20671;SDS011;10495;50.922;4.760;2023-07-13T10:21:13;2.83;;;1.25;;
20671;SDS011;10495;50.922;4.760;2023-07-13T10:23:54;5.40;;;2.10;;
20671;SDS011;10495;50.922;4.760;2023-07-13T10:26:29;7.70;;;1.63;;
20671;SDS011;10495;50.922;4.760;2023-07-13T10:28:59;7.65;;;2.30;;
20671;SDS011;10495;50.922;4.760;2023-07-13T10:31:32;2.53;;;1.77;;
20671;SDS011;10495;50.922;4.760;2023-07-13T10:34:11;3.90;;;1.40;;
20671;SDS011;10495;50.922;4.760;2023-07-13T10:36:45;3.63;;;1.90;;
20671;SDS011;10495;50.922;4.760;2023-07-13T10:39:25;4.30;;;1.80;;
20671;SDS011;10495;50.922;4.760;2023-07-13T10:41:53;3.92;;;1.65;;
20671;SDS011;10495;50.922;4.760;2023-07-13T10:44:25;3.17;;;1.63;;
20671;SDS011;10495;50.922;4.760;2023-07-13T10:46:57;4.75;;;1.90;;
20671;SDS011;10495;50.922;4.760;2023-07-13T10:49:26;3.13;;;1.42;;
20671;SDS011;10495;50.922;4.760;2023-07-13T10:51:54;3.63;;;1.98;;
20671;SDS011;10495;50.922;4.760;2023-07-13T10:54:21;4.18;;;1.70;;
20671;SDS011;10495;50.922;4.760;2023-07-13T10:56:53;5.75;;;1.70;;
20671;SDS011;10495;50.922;4.760;2023-07-13T10:59:37;3.80;;;1.80;;
20671;SDS011;10495;50.922;4.760;2023-07-13T11:04:47;4.07;;;1.70;;
20671;SDS011;10495;50.922;4.760;2023-07-13T11:09:49;3.30;;;1.75;;
20671;SDS011;10495;50.922;4.760;2023-07-13T11:22:41;4.55;;;1.77;;
20671;SDS011;10495;50.922;4.760;2023-07-13T11:30:32;5.32;;;1.73;;
20671;SDS011;10495;50.922;4.760;2023-07-13T11:33:02;3.47;;;1.60;;
20671;SDS011;10495;50.922;4.760;2023-07-13T11:35:32;3.72;;;1.70;;
20671;SDS011;10495;50.922;4.760;2023-07-13T11:38:03;5.30;;;1.85;;
20671;SDS011;10495;50.922;4.760;2023-07-13T11:40:53;3.22;;;1.85;;
20671;SDS011;10495;50.922;4.760;2023-07-13T11:43:20;4.25;;;1.95;;
20671;SDS011;10495;50.922;4.760;2023-07-13T11:45:48;4.95;;;1.90;;
20671;SDS011;10495;50.922;4.760;2023-07-13T11:48:33;3.22;;;1.88;;
20671;SDS011;10495;50.922;4.760;2023-07-13T11:51:03;6.07;;;2.05;;
20671;SDS011;10495;50.922;4.760;2023-07-13T11:53:32;5.82;;;1.80;;
20671;SDS011;10495;50.922;4.760;2023-07-13T11:56:12;9.25;;;1.65;;
20671;SDS011;10495;50.922;4.760;2023-07-13T11:58:38;3.88;;;1.58;;
20671;SDS011;10495;50.922;4.760;2023-07-13T12:01:04;4.45;;;1.67;;
20671;SDS011;10495;50.922;4.760;2023-07-13T12:03:30;3.95;;;1.85;;
20671;SDS011;10495;50.922;4.760;2023-07-13T12:06:03;4.80;;;2.13;;
20671;SDS011;10495;50.922;4.760;2023-07-13T12:08:31;3.55;;;1.70;;
20671;SDS011;10495;50.922;4.760;2023-07-13T12:11:15;4.20;;;1.40;;
20671;SDS011;10495;50.922;4.760;2023-07-13T12:13:43;3.95;;;1.90;;
20671;SDS011;10495;50.922;4.760;2023-07-13T12:16:16;3.58;;;1.50;;
20671;SDS011;10495;50.922;4.760;2023-07-13T12:18:53;3.38;;;1.70;;
20671;SDS011;10495;50.922;4.760;2023-07-13T12:21:22;3.05;;;1.65;;
20671;SDS011;10495;50.922;4.760;2023-07-13T12:23:59;3.40;;;1.88;;
20671;SDS011;10495;50.922;4.760;2023-07-13T12:26:28;4.22;;;1.70;;
20671;SDS011;10495;50.922;4.760;2023-07-13T12:28:55;5.05;;;2.10;;
20671;SDS011;10495;50.922;4.760;2023-07-13T12:34:06;5.35;;;1.70;;
20671;SDS011;10495;50.922;4.760;2023-07-13T12:36:38;1.75;;;1.52;;
20671;SDS011;10495;50.922;4.760;2023-07-13T12:39:24;3.53;;;1.60;;
20671;SDS011;10495;50.922;4.760;2023-07-13T12:43:01;2.05;;;1.40;;
20671;SDS011;10495;50.922;4.760;2023-07-13T12:45:01;4.70;;;2.22;;
20671;SDS011;10495;50.922;4.760;2023-07-13T12:47:49;4.75;;;2.10;;
20671;SDS011;10495;50.922;4.760;2023-07-13T12:50:20;7.88;;;2.42;;
20671;SDS011;10495;50.922;4.760;2023-07-13T12:52:54;2.83;;;2.08;;
20671;SDS011;10495;50.922;4.760;2023-07-13T12:55:39;4.53;;;2.20;;
20671;SDS011;10495;50.922;4.760;2023-07-13T12:58:09;5.07;;;2.00;;
20671;SDS011;10495;50.922;4.760;2023-07-13T13:00:47;3.90;;;1.80;;
20671;SDS011;10495;50.922;4.760;2023-07-13T13:03:22;2.72;;;1.75;;
20671;SDS011;10495;50.922;4.760;2023-07-13T13:05:48;2.72;;;1.75;;
20671;SDS011;10495;50.922;4.760;2023-07-13T13:08:14;4.50;;;2.00;;
20671;SDS011;10495;50.922;4.760;2023-07-13T13:10:40;3.35;;;1.73;;
20671;SDS011;10495;50.922;4.760;2023-07-13T13:13:06;2.70;;;1.48;;
20671;SDS011;10495;50.922;4.760;2023-07-13T13:15:33;4.07;;;1.58;;
20671;SDS011;10495;50.922;4.760;2023-07-13T13:18:00;2.70;;;1.52;;
20671;SDS011;10495;50.922;4.760;2023-07-13T13:20:26;2.42;;;2.22;;
20671;SDS011;10495;50.922;4.760;2023-07-13T13:22:52;4.55;;;1.70;;
20671;SDS011;10495;50.922;4.760;2023-07-13T13:25:18;3.80;;;1.67;;
20671;SDS011;10495;50.922;4.760;2023-07-13T13:27:44;3.65;;;1.85;;
20671;SDS011;10495;50.922;4.760;2023-07-13T13:30:11;4.57;;;1.85;;
20671;SDS011;10495;50.922;4.760;2023-07-13T13:32:39;5.88;;;1.88;;
20671;SDS011;10495;50.922;4.760;2023-07-13T13:35:11;4.63;;;1.92;;
20671;SDS011;10495;50.922;4.760;2023-07-13T13:37:38;3.03;;;1.70;;
20671;SDS011;10495;50.922;4.760;2023-07-13T13:40:12;2.55;;;1.60;;
20671;SDS011;10495;50.922;4.760;2023-07-13T13:42:43;2.10;;;1.70;;
20671;SDS011;10495;50.922;4.760;2023-07-13T13:45:09;1.95;;;1.70;;
20671;SDS011;10495;50.922;4.760;2023-07-13T13:47:35;3.00;;;1.70;;
20671;SDS011;10495;50.922;4.760;2023-07-13T13:50:07;2.35;;;2.08;;
20671;SDS011;10495;50.922;4.760;2023-07-13T13:52:39;2.60;;;1.98;;
20671;SDS011;10495;50.922;4.760;2023-07-13T13:55:15;3.92;;;1.95;;
20671;SDS011;10495;50.922;4.760;2023-07-13T13:57:44;3.65;;;1.88;;
20671;SDS011;10495;50.922;4.760;2023-07-13T14:00:13;4.28;;;1.90;;
20671;SDS011;10495;50.922;4.760;2023-07-13T14:02:42;2.20;;;1.70;;
20671;SDS011;10495;50.922;4.760;2023-07-13T14:05:13;4.50;;;1.83;;
20671;SDS011;10495;50.922;4.760;2023-07-13T14:07:40;2.97;;;2.30;;
20671;SDS011;10495;50.922;4.760;2023-07-13T14:10:11;2.90;;;1.55;;
20671;SDS011;10495;50.922;4.760;2023-07-13T14:12:40;4.95;;;2.20;;
20671;SDS011;10495;50.922;4.760;2023-07-13T14:15:30;1.92;;;1.60;;
20671;SDS011;10495;50.922;4.760;2023-07-13T14:17:59;6.25;;;1.90;;
20671;SDS011;10495;50.922;4.760;2023-07-13T14:20:25;1.60;;;1.20;;
20671;SDS011;10495;50.922;4.760;2023-07-13T14:22:51;3.35;;;1.67;;
20671;SDS011;10495;50.922;4.760;2023-07-13T14:25:18;3.70;;;1.95;;
20671;SDS011;10495;50.922;4.760;2023-07-13T14:27:45;2.10;;;1.40;;
20671;SDS011;10495;50.922;4.760;2023-07-13T14:30:14;4.03;;;1.60;;
20671;SDS011;10495;50.922;4.760;2023-07-13T14:32:42;2.75;;;1.52;;
20671;SDS011;10495;50.922;4.760;2023-07-13T14:35:10;3.55;;;1.67;;
20671;SDS011;10495;50.922;4.760;2023-07-13T14:37:37;3.33;;;1.60;;
20671;SDS011;10495;50.922;4.760;2023-07-13T14:40:11;2.38;;;1.60;;
20671;SDS011;10495;50.922;4.760;2023-07-13T14:42:37;4.57;;;2.05;;
20671;SDS011;10495;50.922;4.760;2023-07-13T14:45:03;1.92;;;1.55;;
20671;SDS011;10495;50.922;4.760;2023-07-13T14:47:29;5.00;;;1.63;;
20671;SDS011;10495;50.922;4.760;2023-07-13T14:49:54;3.75;;;1.58;;
20671;SDS011;10495;50.922;4.760;2023-07-13T14:52:21;2.95;;;1.67;;
20671;SDS011;10495;50.922;4.760;2023-07-13T14:54:48;4.50;;;1.95;;
20671;SDS011;10495;50.922;4.760;2023-07-13T14:57:15;2.63;;;1.70;;
20671;SDS011;10495;50.922;4.760;2023-07-13T14:59:43;6.22;;;2.05;;
20671;SDS011;10495;50.922;4.760;2023-07-13T15:02:13;5.53;;;1.92;;
20671;SDS011;10495;50.922;4.760;2023-07-13T15:04:46;4.03;;;2.00;;
20671;SDS011;10495;50.922;4.760;2023-07-13T15:07:12;3.13;;;1.80;;
20671;SDS011;10495;50.922;4.760;2023-07-13T15:09:40;5.20;;;1.98;;
20671;SDS011;10495;50.922;4.760;2023-07-13T15:12:06;2.63;;;2.00;;
20671;SDS011;10495;50.922;4.760;2023-07-13T15:14:32;2.92;;;1.70;;
20671;SDS011;10495;50.922;4.760;2023-07-13T15:16:58;3.75;;;1.80;;
20671;SDS011;10495;50.922;4.760;2023-07-13T15:19:25;3.65;;;1.42;;
20671;SDS011;10495;50.922;4.760;2023-07-13T15:21:51;2.55;;;1.50;;
20671;SDS011;10495;50.922;4.760;2023-07-13T15:24:22;4.20;;;1.73;;
20671;SDS011;10495;50.922;4.760;2023-07-13T15:26:49;4.28;;;1.63;;
20671;SDS011;10495;50.922;4.760;2023-07-13T15:29:15;3.13;;;1.55;;
20671;SDS011;10495;50.922;4.760;2023-07-13T15:31:41;2.10;;;1.52;;
20671;SDS011;10495;50.922;4.760;2023-07-13T15:34:11;3.38;;;1.67;;